sensor_id;sensor_type;location;lat;lon;timestamp;P1;durP1;ratioP1;P2;durP2;ratioP2
36205;SDS011;22242;48.796;9.930;2022-07-23T00:02:25;5.25;;;4.43;;
36205;SDS011;22242;48.796;9.930;2022-07-23T00:04:51;5.50;;;4.18;;
36205;SDS011;22242;48.796;9.930;2022-07-23T00:07:18;4.20;;;3.80;;
36205;SDS011;22242;48.796;9.930;2022-07-23T00:09:45;4.40;;;3.97;;
36205;SDS011;22242;48.796;9.930;2022-07-23T00:12:12;8.75;;;4.43;;
36205;SDS011;22242;48.796;9.930;2022-07-23T00:14:41;5.35;;;4.07;;
36205;SDS011;22242;48.796;9.930;2022-07-23T00:17:07;7.05;;;3.90;;
36205;SDS011;22242;48.796;9.930;2022-07-23T00:19:34;4.15;;;3.67;;
36205;SDS011;22242;48.796;9.930;2022-07-23T00:22:01;6.60;;;3.90;;
36205;SDS011;22242;48.796;9.930;2022-07-23T00:24:28;4.13;;;3.42;;
36205;SDS011;22242;48.796;9.930;2022-07-23T00:26:55;4.32;;;3.28;;
36205;SDS011;22242;48.796;9.930;2022-07-23T00:29:22;4.00;;;3.10;;
36205;SDS011;22242;48.796;9.930;2022-07-23T00:31:51;4.03;;;3.65;;
36205;SDS011;22242;48.796;9.930;2022-07-23T00:34:17;4.90;;;4.35;;
36205;SDS011;22242;48.796;9.930;2022-07-23T00:36:44;4.82;;;3.58;;
36205;SDS011;22242;48.796;9.930;2022-07-23T00:39:11;4.13;;;3.58;;
36205;SDS011;22242;48.796;9.930;2022-07-23T00:41:39;4.05;;;3.60;;
36205;SDS011;22242;48.796;9.930;2022-07-23T00:44:16;5.35;;;3.88;;
36205;SDS011;22242;48.796;9.930;2022-07-23T00:46:47;3.97;;;3.63;;
36205;SDS011;22242;48.796;9.930;2022-07-23T00:49:19;4.60;;;3.72;;
36205;SDS011;22242;48.796;9.930;2022-07-23T00:51:47;3.75;;;3.22;;
36205;SDS011;22242;48.796;9.930;2022-07-23T00:54:15;4.80;;;4.03;;
36205;SDS011;22242;48.796;9.930;2022-07-23T00:56:43;3.60;;;3.20;;
36205;SDS011;22242;48.796;9.930;2022-07-23T00:59:11;4.90;;;3.47;;
36205;SDS011;22242;48.796;9.930;2022-07-23T01:01:38;4.18;;;3.88;;
36205;SDS011;22242;48.796;9.930;2022-07-23T01:04:06;4.15;;;3.75;;
36205;SDS011;22242;48.796;9.930;2022-07-23T01:06:35;4.53;;;3.75;;
36205;SDS011;22242;48.796;9.930;2022-07-23T01:09:04;4.57;;;3.60;;
36205;SDS011;22242;48.796;9.930;2022-07-23T01:11:32;4.43;;;3.65;;
36205;SDS011;22242;48.796;9.930;2022-07-23T01:14:07;5.28;;;3.72;;
36205;SDS011;22242;48.796;9.930;2022-07-23T01:16:35;5.10;;;4.20;;
36205;SDS011;22242;48.796;9.930;2022-07-23T01:19:02;3.67;;;3.40;;
36205;SDS011;22242;48.796;9.930;2022-07-23T01:21:32;3.83;;;3.33;;
36205;SDS011;22242;48.796;9.930;2022-07-23T01:24:05;4.75;;;3.88;;
36205;SDS011;22242;48.796;9.930;2022-07-23T01:26:35;3.70;;;3.40;;
36205;SDS011;22242;48.796;9.930;2022-07-23T01:29:03;6.07;;;3.90;;
36205;SDS011;22242;48.796;9.930;2022-07-23T01:31:31;3.85;;;3.50;;
36205;SDS011;22242;48.796;9.930;2022-07-23T01:33:58;4.32;;;3.58;;
36205;SDS011;22242;48.796;9.930;2022-07-23T01:36:25;4.65;;;3.38;;
36205;SDS011;22242;48.796;9.930;2022-07-23T01:38:53;4.28;;;3.40;;
36205;SDS011;22242;48.796;9.930;2022-07-23T01:41:22;3.80;;;3.40;;
36205;SDS011;22242;48.796;9.930;2022-07-23T01:43:49;6.55;;;3.65;;
36205;SDS011;22242;48.796;9.930;2022-07-23T01:46:16;6.22;;;4.15;;
36205;SDS011;22242;48.796;9.930;2022-07-23T01:48:47;3.78;;;3.47;;
36205;SDS011;22242;48.796;9.930;2022-07-23T01:51:33;3.78;;;3.35;;
36205;SDS011;22242;48.796;9.930;2022-07-23T01:54:05;4.03;;;3.50;;
36205;SDS011;22242;48.796;9.930;2022-07-23T01:56:34;3.40;;;3.10;;
36205;SDS011;22242;48.796;9.930;2022-07-23T01:59:01;3.97;;;3.15;;
36205;SDS011;22242;48.796;9.930;2022-07-23T02:01:28;4.50;;;3.30;;
36205;SDS011;22242;48.796;9.930;2022-07-23T02:19:33;3.75;;;3.40;;
36205;SDS011;22242;48.796;9.930;2022-07-23T02:22:01;4.70;;;3.60;;
36205;SDS011;22242;48.796;9.930;2022-07-23T02:24:27;4.80;;;3.63;;
36205;SDS011;22242;48.796;9.930;2022-07-23T02:26:55;4.15;;;3.72;;
36205;SDS011;22242;48.796;9.930;2022-07-23T02:29:22;4.72;;;3.20;;
36205;SDS011;22242;48.796;9.930;2022-07-23T02:31:49;4.47;;;3.60;;
36205;SDS011;22242;48.796;9.930;2022-07-23T02:34:16;5.13;;;3.47;;
36205;SDS011;22242;48.796;9.930;2022-07-23T02:36:44;3.67;;;3.38;;
36205;SDS011;22242;48.796;9.930;2022-07-23T02:39:12;4.05;;;3.40;;
36205;SDS011;22242;48.796;9.930;2022-07-23T02:41:39;5.30;;;3.42;;
36205;SDS011;22242;48.796;9.930;2022-07-23T02:44:07;4.95;;;3.67;;
36205;SDS011;22242;48.796;9.930;2022-07-23T02:46:35;3.70;;;3.40;;
36205;SDS011;22242;48.796;9.930;2022-07-23T02:49:02;3.85;;;3.55;;
36205;SDS011;22242;48.796;9.930;2022-07-23T02:51:30;5.32;;;4.20;;
36205;SDS011;22242;48.796;9.930;2022-07-23T02:54:03;4.70;;;4.30;;
36205;SDS011;22242;48.796;9.930;2022-07-23T02:56:30;4.53;;;3.70;;
36205;SDS011;22242;48.796;9.930;2022-07-23T02:58:57;5.03;;;3.55;;
36205;SDS011;22242;48.796;9.930;2022-07-23T03:01:24;3.75;;;3.45;;
36205;SDS011;22242;48.796;9.930;2022-07-23T03:03:51;3.92;;;3.60;;
36205;SDS011;22242;48.796;9.930;2022-07-23T03:06:20;5.85;;;4.00;;
36205;SDS011;22242;48.796;9.930;2022-07-23T03:08:48;6.60;;;3.70;;
36205;SDS011;22242;48.796;9.930;2022-07-23T03:11:17;4.63;;;4.03;;
36205;SDS011;22242;48.796;9.930;2022-07-23T03:13:44;4.70;;;4.20;;
36205;SDS011;22242;48.796;9.930;2022-07-23T03:16:11;4.85;;;4.18;;
36205;SDS011;22242;48.796;9.930;2022-07-23T03:18:38;6.32;;;4.20;;
36205;SDS011;22242;48.796;9.930;2022-07-23T03:21:06;4.75;;;4.13;;
36205;SDS011;22242;48.796;9.930;2022-07-23T03:23:33;6.13;;;3.72;;
36205;SDS011;22242;48.796;9.930;2022-07-23T03:26:00;3.88;;;3.53;;
36205;SDS011;22242;48.796;9.930;2022-07-23T03:28:29;4.60;;;3.80;;
36205;SDS011;22242;48.796;9.930;2022-07-23T03:30:56;4.63;;;4.22;;
36205;SDS011;22242;48.796;9.930;2022-07-23T03:33:23;6.25;;;3.95;;
36205;SDS011;22242;48.796;9.930;2022-07-23T03:35:52;5.10;;;4.38;;
36205;SDS011;22242;48.796;9.930;2022-07-23T03:38:23;4.28;;;3.88;;
36205;SDS011;22242;48.796;9.930;2022-07-23T03:40:50;4.72;;;4.32;;
36205;SDS011;22242;48.796;9.930;2022-07-23T03:43:17;4.20;;;3.90;;
36205;SDS011;22242;48.796;9.930;2022-07-23T03:45:46;4.30;;;3.72;;
36205;SDS011;22242;48.796;9.930;2022-07-23T03:48:13;4.53;;;4.13;;
36205;SDS011;22242;48.796;9.930;2022-07-23T03:50:40;4.60;;;4.10;;
36205;SDS011;22242;48.796;9.930;2022-07-23T03:53:07;4.70;;;4.30;;
36205;SDS011;22242;48.796;9.930;2022-07-23T03:55:35;6.30;;;4.50;;
36205;SDS011;22242;48.796;9.930;2022-07-23T03:58:02;4.43;;;4.03;;
36205;SDS011;22242;48.796;9.930;2022-07-23T04:00:30;4.30;;;3.90;;
36205;SDS011;22242;48.796;9.930;2022-07-23T04:02:58;4.63;;;4.22;;
36205;SDS011;22242;48.796;9.930;2022-07-23T04:05:26;4.50;;;4.07;;
36205;SDS011;22242;48.796;9.930;2022-07-23T04:08:01;3.75;;;3.45;;
36205;SDS011;22242;48.796;9.930;2022-07-23T04:10:28;5.07;;;4.35;;
36205;SDS011;22242;48.796;9.930;2022-07-23T04:12:55;4.45;;;4.00;;
36205;SDS011;22242;48.796;9.930;2022-07-23T04:15:22;8.32;;;4.80;;
36205;SDS011;22242;48.796;9.930;2022-07-23T04:17:49;4.45;;;4.10;;
36205;SDS011;22242;48.796;9.930;2022-07-23T04:20:19;4.20;;;3.80;;
36205;SDS011;22242;48.796;9.930;2022-07-23T04:22:53;4.88;;;3.88;;
36205;SDS011;22242;48.796;9.930;2022-07-23T04:25:21;4.93;;;4.30;;
36205;SDS011;22242;48.796;9.930;2022-07-23T04:27:48;4.85;;;4.40;;
36205;SDS011;22242;48.796;9.930;2022-07-23T04:30:16;4.40;;;4.10;;
36205;SDS011;22242;48.796;9.930;2022-07-23T04:32:43;4.45;;;4.05;;
36205;SDS011;22242;48.796;9.930;2022-07-23T04:35:21;4.57;;;4.18;;
36205;SDS011;22242;48.796;9.930;2022-07-23T04:37:52;4.43;;;4.03;;
36205;SDS011;22242;48.796;9.930;2022-07-23T04:40:18;4.40;;;4.00;;
36205;SDS011;22242;48.796;9.930;2022-07-23T04:42:46;4.47;;;3.85;;
36205;SDS011;22242;48.796;9.930;2022-07-23T04:45:13;5.00;;;4.38;;
36205;SDS011;22242;48.796;9.930;2022-07-23T04:47:40;5.88;;;4.50;;
36205;SDS011;22242;48.796;9.930;2022-07-23T04:50:08;6.18;;;4.53;;
36205;SDS011;22242;48.796;9.930;2022-07-23T04:52:38;7.10;;;4.60;;
36205;SDS011;22242;48.796;9.930;2022-07-23T04:55:05;5.07;;;3.95;;
36205;SDS011;22242;48.796;9.930;2022-07-23T04:57:33;5.05;;;4.43;;
36205;SDS011;22242;48.796;9.930;2022-07-23T05:00:01;5.15;;;4.13;;
36205;SDS011;22242;48.796;9.930;2022-07-23T05:02:28;5.32;;;4.40;;
36205;SDS011;22242;48.796;9.930;2022-07-23T05:04:55;6.03;;;4.65;;
36205;SDS011;22242;48.796;9.930;2022-07-23T05:07:22;4.60;;;4.20;;
36205;SDS011;22242;48.796;9.930;2022-07-23T05:09:51;5.40;;;4.72;;
36205;SDS011;22242;48.796;9.930;2022-07-23T05:12:18;4.13;;;3.78;;
36205;SDS011;22242;48.796;9.930;2022-07-23T05:14:45;4.75;;;4.35;;
36205;SDS011;22242;48.796;9.930;2022-07-23T05:17:12;4.97;;;4.47;;
36205;SDS011;22242;48.796;9.930;2022-07-23T05:19:39;4.72;;;4.22;;
36205;SDS011;22242;48.796;9.930;2022-07-23T05:22:06;4.82;;;4.40;;
36205;SDS011;22242;48.796;9.930;2022-07-23T05:24:33;5.25;;;4.70;;
36205;SDS011;22242;48.796;9.930;2022-07-23T05:27:03;5.97;;;4.20;;
36205;SDS011;22242;48.796;9.930;2022-07-23T05:29:29;5.20;;;4.72;;
36205;SDS011;22242;48.796;9.930;2022-07-23T05:31:57;4.75;;;4.32;;
36205;SDS011;22242;48.796;9.930;2022-07-23T05:34:23;4.60;;;4.20;;
36205;SDS011;22242;48.796;9.930;2022-07-23T05:36:51;4.75;;;4.25;;
36205;SDS011;22242;48.796;9.930;2022-07-23T05:39:19;4.50;;;4.10;;
36205;SDS011;22242;48.796;9.930;2022-07-23T05:41:46;6.43;;;4.85;;
36205;SDS011;22242;48.796;9.930;2022-07-23T05:44:15;4.97;;;4.47;;
36205;SDS011;22242;48.796;9.930;2022-07-23T05:46:43;5.15;;;4.75;;
36205;SDS011;22242;48.796;9.930;2022-07-23T05:49:15;5.97;;;5.22;;
36205;SDS011;22242;48.796;9.930;2022-07-23T05:52:06;4.90;;;4.50;;
36205;SDS011;22242;48.796;9.930;2022-07-23T05:54:52;4.93;;;4.40;;
36205;SDS011;22242;48.796;9.930;2022-07-23T05:57:19;7.10;;;4.53;;
36205;SDS011;22242;48.796;9.930;2022-07-23T05:59:47;4.97;;;4.60;;
36205;SDS011;22242;48.796;9.930;2022-07-23T06:02:14;5.07;;;4.68;;
36205;SDS011;22242;48.796;9.930;2022-07-23T06:04:41;6.85;;;4.57;;
36205;SDS011;22242;48.796;9.930;2022-07-23T06:07:22;5.47;;;4.35;;
36205;SDS011;22242;48.796;9.930;2022-07-23T06:09:49;5.03;;;4.60;;
36205;SDS011;22242;48.796;9.930;2022-07-23T06:12:16;5.22;;;4.70;;
36205;SDS011;22242;48.796;9.930;2022-07-23T06:14:44;6.47;;;4.88;;
36205;SDS011;22242;48.796;9.930;2022-07-23T06:17:15;4.90;;;4.50;;
36205;SDS011;22242;48.796;9.930;2022-07-23T06:19:42;5.10;;;4.70;;
36205;SDS011;22242;48.796;9.930;2022-07-23T06:22:10;5.63;;;4.40;;
36205;SDS011;22242;48.796;9.930;2022-07-23T06:24:37;4.57;;;4.18;;
36205;SDS011;22242;48.796;9.930;2022-07-23T06:27:04;4.60;;;4.25;;
36205;SDS011;22242;48.796;9.930;2022-07-23T06:29:31;4.72;;;4.32;;
36205;SDS011;22242;48.796;9.930;2022-07-23T06:31:58;5.10;;;4.60;;
36205;SDS011;22242;48.796;9.930;2022-07-23T06:34:26;5.03;;;4.45;;
36205;SDS011;22242;48.796;9.930;2022-07-23T06:36:55;6.75;;;5.00;;
36205;SDS011;22242;48.796;9.930;2022-07-23T06:39:22;5.35;;;4.72;;
36205;SDS011;22242;48.796;9.930;2022-07-23T06:41:49;6.10;;;5.28;;
36205;SDS011;22242;48.796;9.930;2022-07-23T06:44:16;5.60;;;5.00;;
36205;SDS011;22242;48.796;9.930;2022-07-23T06:46:46;5.20;;;4.50;;
36205;SDS011;22242;48.796;9.930;2022-07-23T06:49:14;5.50;;;4.97;;
36205;SDS011;22242;48.796;9.930;2022-07-23T06:51:42;6.68;;;4.80;;
36205;SDS011;22242;48.796;9.930;2022-07-23T06:54:09;6.13;;;4.70;;
36205;SDS011;22242;48.796;9.930;2022-07-23T06:56:36;5.13;;;4.63;;
36205;SDS011;22242;48.796;9.930;2022-07-23T06:59:04;4.82;;;4.43;;
36205;SDS011;22242;48.796;9.930;2022-07-23T07:01:31;4.75;;;4.45;;
36205;SDS011;22242;48.796;9.930;2022-07-23T07:03:58;4.95;;;4.47;;
36205;SDS011;22242;48.796;9.930;2022-07-23T07:06:25;4.32;;;4.03;;
36205;SDS011;22242;48.796;9.930;2022-07-23T07:08:53;4.57;;;4.18;;
36205;SDS011;22242;48.796;9.930;2022-07-23T07:11:21;5.15;;;4.75;;
36205;SDS011;22242;48.796;9.930;2022-07-23T07:13:48;4.68;;;4.20;;
36205;SDS011;22242;48.796;9.930;2022-07-23T07:16:15;4.72;;;4.32;;
36205;SDS011;22242;48.796;9.930;2022-07-23T07:18:43;5.43;;;4.43;;
36205;SDS011;22242;48.796;9.930;2022-07-23T07:21:09;4.80;;;4.30;;
36205;SDS011;22242;48.796;9.930;2022-07-23T07:23:37;4.45;;;4.15;;
36205;SDS011;22242;48.796;9.930;2022-07-23T07:26:05;4.03;;;3.78;;
36205;SDS011;22242;48.796;9.930;2022-07-23T07:28:33;5.97;;;5.05;;
36205;SDS011;22242;48.796;9.930;2022-07-23T07:31:00;5.00;;;4.60;;
36205;SDS011;22242;48.796;9.930;2022-07-23T07:33:27;5.57;;;4.43;;
36205;SDS011;22242;48.796;9.930;2022-07-23T07:35:54;5.20;;;4.70;;
36205;SDS011;22242;48.796;9.930;2022-07-23T07:38:21;5.03;;;4.60;;
36205;SDS011;22242;48.796;9.930;2022-07-23T07:40:48;5.22;;;4.72;;
36205;SDS011;22242;48.796;9.930;2022-07-23T07:43:16;5.70;;;4.90;;
36205;SDS011;22242;48.796;9.930;2022-07-23T07:45:43;5.40;;;4.90;;
36205;SDS011;22242;48.796;9.930;2022-07-23T07:48:10;5.57;;;5.07;;
36205;SDS011;22242;48.796;9.930;2022-07-23T07:50:37;5.85;;;5.35;;
36205;SDS011;22242;48.796;9.930;2022-07-23T07:53:04;5.57;;;4.63;;
36205;SDS011;22242;48.796;9.930;2022-07-23T07:55:31;6.15;;;4.65;;
36205;SDS011;22242;48.796;9.930;2022-07-23T07:57:58;5.80;;;5.18;;
36205;SDS011;22242;48.796;9.930;2022-07-23T08:00:26;5.90;;;5.28;;
36205;SDS011;22242;48.796;9.930;2022-07-23T08:02:54;5.93;;;5.43;;
36205;SDS011;22242;48.796;9.930;2022-07-23T08:05:22;5.80;;;5.30;;
36205;SDS011;22242;48.796;9.930;2022-07-23T08:07:50;5.95;;;5.38;;
36205;SDS011;22242;48.796;9.930;2022-07-23T08:10:17;5.78;;;5.28;;
36205;SDS011;22242;48.796;9.930;2022-07-23T08:12:45;6.68;;;5.57;;
36205;SDS011;22242;48.796;9.930;2022-07-23T08:15:14;5.20;;;4.80;;
36205;SDS011;22242;48.796;9.930;2022-07-23T08:17:44;4.95;;;4.57;;
36205;SDS011;22242;48.796;9.930;2022-07-23T08:20:12;7.35;;;5.00;;
36205;SDS011;22242;48.796;9.930;2022-07-23T08:22:41;5.07;;;4.68;;
36205;SDS011;22242;48.796;9.930;2022-07-23T08:25:10;5.95;;;4.80;;
36205;SDS011;22242;48.796;9.930;2022-07-23T08:27:36;5.50;;;5.05;;
36205;SDS011;22242;48.796;9.930;2022-07-23T08:30:04;5.90;;;5.40;;
36205;SDS011;22242;48.796;9.930;2022-07-23T08:32:32;6.57;;;4.60;;
36205;SDS011;22242;48.796;9.930;2022-07-23T08:35:00;5.40;;;4.90;;
36205;SDS011;22242;48.796;9.930;2022-07-23T08:37:27;5.50;;;4.95;;
36205;SDS011;22242;48.796;9.930;2022-07-23T08:39:54;5.18;;;4.68;;
36205;SDS011;22242;48.796;9.930;2022-07-23T08:42:21;4.57;;;4.18;;
36205;SDS011;22242;48.796;9.930;2022-07-23T08:44:48;5.75;;;4.38;;
36205;SDS011;22242;48.796;9.930;2022-07-23T08:47:15;6.15;;;4.30;;
36205;SDS011;22242;48.796;9.930;2022-07-23T08:49:43;5.13;;;4.63;;
36205;SDS011;22242;48.796;9.930;2022-07-23T08:52:12;5.93;;;5.00;;
36205;SDS011;22242;48.796;9.930;2022-07-23T08:54:40;4.82;;;4.53;;
36205;SDS011;22242;48.796;9.930;2022-07-23T08:57:07;4.88;;;4.40;;
36205;SDS011;22242;48.796;9.930;2022-07-23T08:59:34;5.75;;;4.75;;
36205;SDS011;22242;48.796;9.930;2022-07-23T09:02:01;5.75;;;4.50;;
36205;SDS011;22242;48.796;9.930;2022-07-23T09:04:28;5.07;;;4.60;;
36205;SDS011;22242;48.796;9.930;2022-07-23T09:06:57;4.80;;;4.40;;
36205;SDS011;22242;48.796;9.930;2022-07-23T09:09:26;5.20;;;4.70;;
36205;SDS011;22242;48.796;9.930;2022-07-23T09:12:01;5.32;;;4.88;;
36205;SDS011;22242;48.796;9.930;2022-07-23T09:14:36;4.18;;;3.88;;
36205;SDS011;22242;48.796;9.930;2022-07-23T09:17:08;4.70;;;4.30;;
36205;SDS011;22242;48.796;9.930;2022-07-23T09:19:36;5.30;;;4.80;;
36205;SDS011;22242;48.796;9.930;2022-07-23T09:22:16;4.93;;;4.50;;
36205;SDS011;22242;48.796;9.930;2022-07-23T09:25:03;4.90;;;4.40;;
36205;SDS011;22242;48.796;9.930;2022-07-23T09:27:45;5.30;;;4.90;;
36205;SDS011;22242;48.796;9.930;2022-07-23T09:30:17;5.63;;;5.22;;
36205;SDS011;22242;48.796;9.930;2022-07-23T09:32:44;5.30;;;4.80;;
36205;SDS011;22242;48.796;9.930;2022-07-23T09:35:42;7.28;;;5.65;;
36205;SDS011;22242;48.796;9.930;2022-07-23T09:38:10;5.80;;;5.30;;
36205;SDS011;22242;48.796;9.930;2022-07-23T09:40:39;5.63;;;5.07;;
36205;SDS011;22242;48.796;9.930;2022-07-23T09:43:06;5.97;;;5.22;;
36205;SDS011;22242;48.796;9.930;2022-07-23T09:45:33;5.40;;;4.95;;
36205;SDS011;22242;48.796;9.930;2022-07-23T09:48:10;5.35;;;4.78;;
36205;SDS011;22242;48.796;9.930;2022-07-23T09:50:37;5.55;;;5.05;;
36205;SDS011;22242;48.796;9.930;2022-07-23T09:53:05;5.72;;;5.30;;
36205;SDS011;22242;48.796;9.930;2022-07-23T09:55:32;4.88;;;4.57;;
36205;SDS011;22242;48.796;9.930;2022-07-23T09:58:03;5.38;;;4.88;;
36205;SDS011;22242;48.796;9.930;2022-07-23T10:00:32;5.57;;;5.07;;
36205;SDS011;22242;48.796;9.930;2022-07-23T10:02:59;5.18;;;4.85;;
36205;SDS011;22242;48.796;9.930;2022-07-23T10:05:27;5.50;;;5.03;;
36205;SDS011;22242;48.796;9.930;2022-07-23T10:08:16;5.57;;;5.13;;
36205;SDS011;22242;48.796;9.930;2022-07-23T10:11:03;5.82;;;5.32;;
36205;SDS011;22242;48.796;9.930;2022-07-23T10:13:48;5.78;;;5.20;;
36205;SDS011;22242;48.796;9.930;2022-07-23T10:16:26;5.35;;;4.93;;
36205;SDS011;22242;48.796;9.930;2022-07-23T10:18:54;5.10;;;4.70;;
36205;SDS011;22242;48.796;9.930;2022-07-23T10:21:24;5.70;;;5.28;;
36205;SDS011;22242;48.796;9.930;2022-07-23T10:23:58;4.90;;;4.60;;
36205;SDS011;22242;48.796;9.930;2022-07-23T10:26:37;5.22;;;4.72;;
36205;SDS011;22242;48.796;9.930;2022-07-23T10:29:12;5.68;;;5.28;;
36205;SDS011;22242;48.796;9.930;2022-07-23T10:31:50;4.68;;;4.25;;
36205;SDS011;22242;48.796;9.930;2022-07-23T10:34:25;5.55;;;5.07;;
36205;SDS011;22242;48.796;9.930;2022-07-23T10:37:01;5.03;;;4.55;;
36205;SDS011;22242;48.796;9.930;2022-07-23T10:39:35;5.13;;;4.72;;
36205;SDS011;22242;48.796;9.930;2022-07-23T10:42:09;5.55;;;4.63;;
36205;SDS011;22242;48.796;9.930;2022-07-23T10:44:40;4.90;;;4.53;;
36205;SDS011;22242;48.796;9.930;2022-07-23T10:47:08;5.38;;;4.40;;
36205;SDS011;22242;48.796;9.930;2022-07-23T10:55:43;5.35;;;4.95;;
36205;SDS011;22242;48.796;9.930;2022-07-23T10:58:17;5.45;;;4.97;;
36205;SDS011;22242;48.796;9.930;2022-07-23T11:00:50;5.20;;;4.70;;
36205;SDS011;22242;48.796;9.930;2022-07-23T11:03:33;4.63;;;4.30;;
36205;SDS011;22242;48.796;9.930;2022-07-23T11:06:03;5.40;;;4.90;;
36205;SDS011;22242;48.796;9.930;2022-07-23T11:08:31;5.30;;;4.90;;
36205;SDS011;22242;48.796;9.930;2022-07-23T11:11:08;5.47;;;4.97;;
36205;SDS011;22242;48.796;9.930;2022-07-23T11:13:37;5.13;;;4.72;;
36205;SDS011;22242;48.796;9.930;2022-07-23T11:16:15;5.10;;;4.70;;
36205;SDS011;22242;48.796;9.930;2022-07-23T11:18:56;5.25;;;4.82;;
36205;SDS011;22242;48.796;9.930;2022-07-23T11:21:43;5.20;;;4.80;;
36205;SDS011;22242;48.796;9.930;2022-07-23T11:24:15;6.28;;;4.63;;
36205;SDS011;22242;48.796;9.930;2022-07-23T11:26:50;4.57;;;4.22;;
36205;SDS011;22242;48.796;9.930;2022-07-23T11:29:42;5.32;;;4.55;;
36205;SDS011;22242;48.796;9.930;2022-07-23T11:35:22;5.00;;;4.60;;
36205;SDS011;22242;48.796;9.930;2022-07-23T11:38:02;4.60;;;4.30;;
36205;SDS011;22242;48.796;9.930;2022-07-23T11:40:30;4.90;;;4.50;;
36205;SDS011;22242;48.796;9.930;2022-07-23T11:42:58;5.30;;;4.80;;
36205;SDS011;22242;48.796;9.930;2022-07-23T11:45:30;4.95;;;4.55;;
36205;SDS011;22242;48.796;9.930;2022-07-23T11:47:59;5.55;;;5.00;;
36205;SDS011;22242;48.796;9.930;2022-07-23T11:50:27;5.28;;;4.82;;
36205;SDS011;22242;48.796;9.930;2022-07-23T11:52:54;5.32;;;4.93;;
36205;SDS011;22242;48.796;9.930;2022-07-23T11:55:22;5.43;;;4.60;;
36205;SDS011;22242;48.796;9.930;2022-07-23T11:57:50;4.72;;;4.40;;
36205;SDS011;22242;48.796;9.930;2022-07-23T12:00:18;5.80;;;5.20;;
36205;SDS011;22242;48.796;9.930;2022-07-23T12:02:47;5.30;;;4.80;;
36205;SDS011;22242;48.796;9.930;2022-07-23T12:05:17;5.40;;;4.90;;
36205;SDS011;22242;48.796;9.930;2022-07-23T12:07:47;5.60;;;5.10;;
36205;SDS011;22242;48.796;9.930;2022-07-23T12:10:16;7.10;;;4.88;;
36205;SDS011;22242;48.796;9.930;2022-07-23T12:12:44;5.72;;;4.80;;
36205;SDS011;22242;48.796;9.930;2022-07-23T12:15:14;5.03;;;4.68;;
36205;SDS011;22242;48.796;9.930;2022-07-23T12:17:43;5.05;;;4.65;;
36205;SDS011;22242;48.796;9.930;2022-07-23T12:20:12;5.25;;;4.75;;
36205;SDS011;22242;48.796;9.930;2022-07-23T12:22:40;5.18;;;4.68;;
36205;SDS011;22242;48.796;9.930;2022-07-23T12:25:11;5.75;;;4.60;;
36205;SDS011;22242;48.796;9.930;2022-07-23T12:27:39;4.60;;;4.30;;
36205;SDS011;22242;48.796;9.930;2022-07-23T12:30:19;4.38;;;4.07;;
36205;SDS011;22242;48.796;9.930;2022-07-23T12:32:48;5.05;;;4.55;;
36205;SDS011;22242;48.796;9.930;2022-07-23T12:35:17;6.32;;;4.57;;
36205;SDS011;22242;48.796;9.930;2022-07-23T12:37:45;5.20;;;4.70;;
36205;SDS011;22242;48.796;9.930;2022-07-23T12:40:21;4.90;;;4.50;;
36205;SDS011;22242;48.796;9.930;2022-07-23T12:42:51;4.68;;;4.28;;
36205;SDS011;22242;48.796;9.930;2022-07-23T12:45:20;4.43;;;4.03;;
36205;SDS011;22242;48.796;9.930;2022-07-23T12:47:51;4.78;;;4.28;;
36205;SDS011;22242;48.796;9.930;2022-07-23T12:50:33;4.65;;;4.25;;
36205;SDS011;22242;48.796;9.930;2022-07-23T12:53:05;4.60;;;4.18;;
36205;SDS011;22242;48.796;9.930;2022-07-23T12:55:35;5.68;;;4.00;;
36205;SDS011;22242;48.796;9.930;2022-07-23T12:58:04;3.95;;;3.50;;
36205;SDS011;22242;48.796;9.930;2022-07-23T13:03:22;4.65;;;4.30;;
36205;SDS011;22242;48.796;9.930;2022-07-23T13:05:57;4.43;;;4.07;;
36205;SDS011;22242;48.796;9.930;2022-07-23T13:08:27;4.60;;;4.20;;
36205;SDS011;22242;48.796;9.930;2022-07-23T13:10:57;4.30;;;3.90;;
36205;SDS011;22242;48.796;9.930;2022-07-23T13:13:25;4.78;;;4.38;;
36205;SDS011;22242;48.796;9.930;2022-07-23T13:15:54;4.32;;;4.00;;
36205;SDS011;22242;48.796;9.930;2022-07-23T13:18:22;4.03;;;3.72;;
36205;SDS011;22242;48.796;9.930;2022-07-23T13:20:49;4.35;;;4.05;;
36205;SDS011;22242;48.796;9.930;2022-07-23T13:23:18;4.93;;;4.53;;
36205;SDS011;22242;48.796;9.930;2022-07-23T13:25:46;4.85;;;4.45;;
36205;SDS011;22242;48.796;9.930;2022-07-23T13:28:16;9.18;;;4.25;;
36205;SDS011;22242;48.796;9.930;2022-07-23T13:30:44;4.78;;;4.28;;
36205;SDS011;22242;48.796;9.930;2022-07-23T13:33:12;6.32;;;4.57;;
36205;SDS011;22242;48.796;9.930;2022-07-23T13:35:39;5.18;;;4.72;;
36205;SDS011;22242;48.796;9.930;2022-07-23T13:38:06;4.95;;;4.55;;
36205;SDS011;22242;48.796;9.930;2022-07-23T13:40:34;4.72;;;4.35;;
36205;SDS011;22242;48.796;9.930;2022-07-23T13:43:04;4.93;;;4.05;;
36205;SDS011;22242;48.796;9.930;2022-07-23T13:45:33;4.57;;;4.22;;
36205;SDS011;22242;48.796;9.930;2022-07-23T13:48:00;5.20;;;4.70;;
36205;SDS011;22242;48.796;9.930;2022-07-23T13:50:27;4.60;;;4.30;;
36205;SDS011;22242;48.796;9.930;2022-07-23T13:52:54;4.80;;;4.30;;
36205;SDS011;22242;48.796;9.930;2022-07-23T13:55:21;4.85;;;4.45;;
36205;SDS011;22242;48.796;9.930;2022-07-23T13:57:48;5.72;;;4.78;;
36205;SDS011;22242;48.796;9.930;2022-07-23T14:00:15;5.10;;;4.57;;
36205;SDS011;22242;48.796;9.930;2022-07-23T14:02:44;4.78;;;4.38;;
36205;SDS011;22242;48.796;9.930;2022-07-23T14:05:11;4.78;;;4.38;;
36205;SDS011;22242;48.796;9.930;2022-07-23T14:07:38;4.72;;;4.30;;
36205;SDS011;22242;48.796;9.930;2022-07-23T14:10:08;4.75;;;4.35;;
36205;SDS011;22242;48.796;9.930;2022-07-23T14:12:35;5.30;;;4.63;;
36205;SDS011;22242;48.796;9.930;2022-07-23T14:15:03;5.18;;;4.68;;
36205;SDS011;22242;48.796;9.930;2022-07-23T14:17:33;4.55;;;4.15;;
36205;SDS011;22242;48.796;9.930;2022-07-23T14:20:02;5.05;;;4.57;;
36205;SDS011;22242;48.796;9.930;2022-07-23T14:22:30;5.30;;;4.82;;
36205;SDS011;22242;48.796;9.930;2022-07-23T14:24:57;4.78;;;4.38;;
36205;SDS011;22242;48.796;9.930;2022-07-23T14:27:25;5.25;;;4.82;;
36205;SDS011;22242;48.796;9.930;2022-07-23T14:29:53;6.53;;;4.85;;
36205;SDS011;22242;48.796;9.930;2022-07-23T14:32:20;5.55;;;4.88;;
36205;SDS011;22242;48.796;9.930;2022-07-23T14:34:48;5.57;;;4.80;;
36205;SDS011;22242;48.796;9.930;2022-07-23T14:37:16;5.15;;;4.65;;
36205;SDS011;22242;48.796;9.930;2022-07-23T14:39:44;4.93;;;4.47;;
36205;SDS011;22242;48.796;9.930;2022-07-23T14:42:12;5.47;;;5.00;;
36205;SDS011;22242;48.796;9.930;2022-07-23T14:44:39;4.78;;;4.45;;
36205;SDS011;22242;48.796;9.930;2022-07-23T14:47:07;5.05;;;4.57;;
36205;SDS011;22242;48.796;9.930;2022-07-23T14:49:35;4.90;;;4.50;;
36205;SDS011;22242;48.796;9.930;2022-07-23T14:52:02;5.65;;;5.15;;
36205;SDS011;22242;48.796;9.930;2022-07-23T14:54:32;5.80;;;5.20;;
36205;SDS011;22242;48.796;9.930;2022-07-23T14:57:00;5.80;;;5.30;;
36205;SDS011;22242;48.796;9.930;2022-07-23T14:59:28;5.80;;;5.32;;
36205;SDS011;22242;48.796;9.930;2022-07-23T15:01:56;6.10;;;5.50;;
36205;SDS011;22242;48.796;9.930;2022-07-23T15:04:24;6.05;;;5.05;;
36205;SDS011;22242;48.796;9.930;2022-07-23T15:06:51;5.85;;;5.30;;
36205;SDS011;22242;48.796;9.930;2022-07-23T15:09:18;6.30;;;5.72;;
36205;SDS011;22242;48.796;9.930;2022-07-23T15:11:46;5.80;;;5.30;;
36205;SDS011;22242;48.796;9.930;2022-07-23T15:14:13;5.43;;;5.00;;
36205;SDS011;22242;48.796;9.930;2022-07-23T15:16:40;6.05;;;5.45;;
36205;SDS011;22242;48.796;9.930;2022-07-23T15:19:07;5.97;;;5.47;;
36205;SDS011;22242;48.796;9.930;2022-07-23T15:21:34;6.32;;;5.72;;
36205;SDS011;22242;48.796;9.930;2022-07-23T15:24:01;5.53;;;5.05;;
36205;SDS011;22242;48.796;9.930;2022-07-23T15:26:29;6.43;;;5.88;;
36205;SDS011;22242;48.796;9.930;2022-07-23T15:28:57;6.07;;;5.47;;